Time,TemperatureF,DewpointF,PressureIn,WindDirection,WindDirectionDegrees,WindSpeedMPH,WindSpeedGustMPH,Humidity,HourlyPrecipIn,Conditions,Clouds,dailyrainin,SolarRadiationWatts/m^2,SoftwareType,DateUTC
2013-01-29 00:00:00,55.9,55.0,29.53,NNE,24,4.0,-999.0,98,-99.99,,,0.05,0,weatherlink.com 1.10,2013-01-29 06:00:00,
2013-01-29 00:16:00,57.2,57.0,29.52,North,360,6.0,-999.0,98,-99.99,,,0.00,0,weatherlink.com 1.10,2013-01-29 06:16:00,
2013-01-29 00:31:00,57.8,57.0,29.51,North,9,3.0,-999.0,98,-99.99,,,0.00,0,weatherlink.com 1.10,2013-01-29 06:31:00,
2013-01-29 00:45:00,58.1,58.0,29.50,NNE,17,10.0,-999.0,98,-99.99,,,0.00,0,weatherlink.com 1.10,2013-01-29 06:45:00,
2013-01-29 01:01:00,58.1,58.0,29.49,North,5,7.0,-999.0,98,-99.99,,,0.00,0,weatherlink.com 1.10,2013-01-29 07:01:00,
2013-01-29 01:16:00,58.3,58.0,29.48,NNW,346,5.0,-999.0,98,-99.99,,,0.00,0,weatherlink.com 1.10,2013-01-29 07:16:00,
2013-01-29 01:31:00,57.6,57.0,29.48,North,9,3.0,-999.0,98,-99.99,,,0.00,0,weatherlink.com 1.10,2013-01-29 07:31:00,
2013-01-29 01:46:00,57.6,57.0,29.48,North,355,6.0,-999.0,97,-99.99,,,0.00,0,weatherlink.com 1.10,2013-01-29 07:46:00,
2013-01-29 02:01:00,57.6,57.0,29.48,NNW,346,4.0,-999.0,97,-99.99,,,0.00,0,weatherlink.com 1.10,2013-01-29 08:01:00,
2013-01-29 02:16:00,58.0,57.0,29.47,NNE,28,12.0,-999.0,97,-99.99,,,0.00,0,weatherlink.com 1.10,2013-01-29 08:16:00,
2013-01-29 02:31:00,58.1,57.0,29.46,North,355,2.0,-999.0,96,-99.99,,,0.00,0,weatherlink.com 1.10,2013-01-29 08:31:00,
2013-01-29 02:46:00,58.3,57.0,29.46,NNE,20,3.0,-999.0,96,-99.99,,,0.00,0,weatherlink.com 1.10,2013-01-29 08:46:00,
2013-01-29 03:01:00,58.4,57.0,29.46,North,5,3.0,-999.0,96,-99.99,,,0.00,0,weatherlink.com 1.10,2013-01-29 09:01:00,
2013-01-29 03:16:00,58.9,58.0,29.46,NNE,22,2.0,-999.0,96,-99.99,,,0.00,0,weatherlink.com 1.10,2013-01-29 09:16:00,
2013-01-29 03:32:00,59.6,58.0,29.45,NNE,31,5.0,-999.0,95,-99.99,,,0.00,0,weatherlink.com 1.10,2013-01-29 09:32:00,
2013-01-29 03:46:00,59.5,58.0,29.46,North,5,0.0,-999.0,94,-99.99,,,0.00,0,weatherlink.com 1.10,2013-01-29 09:46:00,
2013-01-29 04:01:00,59.3,57.0,29.47,North,10,2.0,-999.0,93,-99.99,,,0.00,0,weatherlink.com 1.10,2013-01-29 10:01:00,
2013-01-29 04:16:00,59.2,57.0,29.46,North,355,6.0,-999.0,93,-99.99,,,0.00,0,weatherlink.com 1.10,2013-01-29 10:16:00,
2013-01-29 04:31:00,59.3,57.0,29.48,NE,37,3.0,-999.0,91,-99.99,,,0.00,0,weatherlink.com 1.10,2013-01-29 10:31:00,
2013-01-29 04:46:00,58.7,56.0,29.48,ENE,65,0.0,-999.0,91,-99.99,,,0.00,0,weatherlink.com 1.10,2013-01-29 10:46:00,
2013-01-29 05:01:00,47.7,44.0,29.52,SSE,154,6.0,-999.0,88,-99.99,,,0.00,0,weatherlink.com 1.10,2013-01-29 11:01:00,
2013-01-29 05:16:00,44.9,43.0,29.54,SE,145,3.0,-999.0,91,-99.99,,,0.00,0,weatherlink.com 1.10,2013-01-29 11:16:00,
2013-01-29 05:34:00,43.6,42.0,29.53,SE,136,2.0,-999.0,92,-99.99,,,0.00,0,weatherlink.com 1.10,2013-01-29 11:34:00,
2013-01-29 05:46:00,42.9,41.0,29.54,SE,140,2.0,-999.0,92,-99.99,,,0.00,0,weatherlink.com 1.10,2013-01-29 11:46:00,
2013-01-29 06:01:00,42.2,40.0,29.56,SE,140,4.0,-999.0,92,-99.99,,,0.00,0,weatherlink.com 1.10,2013-01-29 12:01:00,
2013-01-29 06:16:00,41.1,39.0,29.56,SE,137,3.0,-999.0,93,-99.99,,,0.00,0,weatherlink.com 1.10,2013-01-29 12:16:00,
2013-01-29 06:31:00,40.3,38.0,29.57,ESE,116,2.0,-999.0,92,-99.99,,,0.00,0,weatherlink.com 1.10,2013-01-29 12:31:00,
2013-01-29 06:46:00,40.1,38.0,29.56,SE,137,4.0,-999.0,92,-99.99,,,0.00,0,weatherlink.com 1.10,2013-01-29 12:46:00,
2013-01-29 07:02:00,39.6,38.0,29.56,ESE,119,2.0,-999.0,92,-99.99,,,0.00,0,weatherlink.com 1.10,2013-01-29 13:02:00,
2013-01-29 07:17:00,39.3,37.0,29.55,SSE,160,3.0,-999.0,92,-99.99,,,0.00,0,weatherlink.com 1.10,2013-01-29 13:17:00,
2013-01-29 07:31:00,38.9,37.0,29.56,ESE,123,2.0,-999.0,92,-99.99,,,0.00,0,weatherlink.com 1.10,2013-01-29 13:31:00,
2013-01-29 07:46:00,38.8,37.0,29.56,SE,133,0.0,-999.0,92,-99.99,,,0.00,0,weatherlink.com 1.10,2013-01-29 13:46:00,
2013-01-29 08:01:00,38.6,37.0,29.57,SE,132,1.0,-999.0,92,-99.99,,,0.00,11,weatherlink.com 1.10,2013-01-29 14:01:00,
2013-01-29 08:16:00,38.5,36.0,29.59,SSE,164,1.0,-999.0,92,-99.99,,,0.00,9,weatherlink.com 1.10,2013-01-29 14:16:00,
2013-01-29 08:32:00,38.3,36.0,29.58,SSE,159,0.0,-999.0,92,-99.99,,,0.00,21,weatherlink.com 1.10,2013-01-29 14:32:00,
2013-01-29 08:46:00,38.5,36.0,29.59,SSE,159,0.0,-999.0,92,-99.99,,,0.00,28,weatherlink.com 1.10,2013-01-29 14:46:00,
2013-01-29 09:02:00,38.5,36.0,29.60,East,98,2.0,-999.0,92,-99.99,,,0.00,18,weatherlink.com 1.10,2013-01-29 15:02:00,
2013-01-29 09:16:00,38.2,36.0,29.59,East,97,3.0,-999.0,92,-99.99,,,0.00,16,weatherlink.com 1.10,2013-01-29 15:16:00,
2013-01-29 09:31:00,38.0,36.0,29.59,South,174,4.0,-999.0,92,-99.99,,,0.00,28,weatherlink.com 1.10,2013-01-29 15:31:00,
2013-01-29 09:46:00,37.9,36.0,29.57,SSE,153,1.0,-999.0,91,-99.99,,,0.00,42,weatherlink.com 1.10,2013-01-29 15:46:00,
2013-01-29 10:02:00,37.8,36.0,29.59,SSE,155,2.0,-999.0,91,-99.99,,,0.00,35,weatherlink.com 1.10,2013-01-29 16:02:00,
2013-01-29 10:17:00,37.2,34.0,29.61,SE,134,2.0,-999.0,89,-99.99,,,0.00,37,weatherlink.com 1.10,2013-01-29 16:17:00,
2013-01-29 10:32:00,36.8,34.0,29.63,ESE,109,3.0,-999.0,89,-99.99,,,0.00,30,weatherlink.com 1.10,2013-01-29 16:32:00,
2013-01-29 10:49:00,36.5,34.0,29.64,SE,134,4.0,-999.0,89,-99.99,,,0.00,40,weatherlink.com 1.10,2013-01-29 16:49:00,
2013-01-29 11:02:00,36.3,33.0,29.62,ESE,105,5.0,-999.0,89,-99.99,,,0.00,35,weatherlink.com 1.10,2013-01-29 17:02:00,
2013-01-29 11:17:00,36.0,33.0,29.60,SE,142,4.0,-999.0,89,-99.99,,,0.00,47,weatherlink.com 1.10,2013-01-29 17:17:00,
2013-01-29 11:32:00,35.9,33.0,29.58,SSE,155,6.0,-999.0,90,-99.99,,,0.00,67,weatherlink.com 1.10,2013-01-29 17:32:00,
2013-01-29 11:47:00,36.2,34.0,29.57,SSE,154,4.0,-999.0,90,-99.99,,,0.00,51,weatherlink.com 1.10,2013-01-29 17:47:00,
2013-01-29 12:02:00,36.2,33.0,29.57,SSE,159,7.0,-999.0,89,-99.99,,,0.00,54,weatherlink.com 1.10,2013-01-29 18:02:00,
2013-01-29 12:17:00,36.2,34.0,29.55,South,169,4.0,-999.0,90,-99.99,,,0.00,60,weatherlink.com 1.10,2013-01-29 18:17:00,
2013-01-29 12:32:00,36.2,34.0,29.55,SSE,159,3.0,-999.0,90,-99.99,,,0.00,49,weatherlink.com 1.10,2013-01-29 18:32:00,
2013-01-29 12:47:00,36.0,33.0,29.55,SSW,192,4.0,-999.0,90,-99.99,,,0.00,79,weatherlink.com 1.10,2013-01-29 18:47:00,
2013-01-29 13:02:00,36.5,34.0,29.55,South,175,3.0,-999.0,90,-99.99,,,0.00,39,weatherlink.com 1.10,2013-01-29 19:02:00,
2013-01-29 13:17:00,36.3,33.0,29.55,South,179,0.0,-999.0,89,-99.99,,,0.00,56,weatherlink.com 1.10,2013-01-29 19:17:00,
2013-01-29 13:32:00,36.2,33.0,29.53,South,179,3.0,-999.0,88,-99.99,,,0.00,51,weatherlink.com 1.10,2013-01-29 19:32:00,
2013-01-29 13:47:00,36.0,33.0,29.53,South,174,0.0,-999.0,88,-99.99,,,0.00,46,weatherlink.com 1.10,2013-01-29 19:47:00,
2013-01-29 14:02:00,36.0,33.0,29.55,South,178,4.0,-999.0,89,-99.99,,,0.00,56,weatherlink.com 1.10,2013-01-29 20:02:00,
2013-01-29 14:17:00,35.9,33.0,29.53,South,178,4.0,-999.0,88,-99.99,,,0.00,28,weatherlink.com 1.10,2013-01-29 20:17:00,
2013-01-29 14:32:00,35.8,33.0,29.52,South,169,3.0,-999.0,89,-99.99,,,0.00,23,weatherlink.com 1.10,2013-01-29 20:32:00,
2013-01-29 14:47:00,35.5,33.0,29.52,South,171,3.0,-999.0,89,-99.99,,,0.00,44,weatherlink.com 1.10,2013-01-29 20:47:00,
2013-01-29 15:02:00,35.5,33.0,29.50,SSE,155,2.0,-999.0,89,-99.99,,,0.00,35,weatherlink.com 1.10,2013-01-29 21:02:00,
2013-01-29 15:17:00,35.5,33.0,29.55,South,173,0.0,-999.0,89,-99.99,,,0.00,26,weatherlink.com 1.10,2013-01-29 21:17:00,
2013-01-29 15:32:00,35.5,33.0,29.50,South,173,7.0,-999.0,89,-99.99,,,0.00,30,weatherlink.com 1.10,2013-01-29 21:32:00,
2013-01-29 15:47:00,35.3,32.0,29.50,South,188,4.0,-999.0,89,-99.99,,,0.00,23,weatherlink.com 1.10,2013-01-29 21:47:00,
2013-01-29 16:02:00,35.2,32.0,29.50,South,173,6.0,-999.0,88,-99.99,,,0.00,18,weatherlink.com 1.10,2013-01-29 22:02:00,
2013-01-29 16:17:00,35.2,32.0,29.54,SSE,167,0.0,-999.0,88,-99.99,,,0.00,11,weatherlink.com 1.10,2013-01-29 22:17:00,
2013-01-29 16:32:00,34.9,32.0,29.55,South,174,2.0,-999.0,88,-99.99,,,0.00,12,weatherlink.com 1.10,2013-01-29 22:32:00,
2013-01-29 16:47:00,34.7,32.0,29.54,South,173,4.0,-999.0,88,-99.99,,,0.00,5,weatherlink.com 1.10,2013-01-29 22:47:00,
2013-01-29 17:03:00,34.6,31.0,29.56,South,180,1.0,-999.0,88,-99.99,,,0.00,5,weatherlink.com 1.10,2013-01-29 23:03:00,
2013-01-29 17:18:00,34.3,31.0,29.55,South,175,2.0,-999.0,87,-99.99,,,0.00,0,weatherlink.com 1.10,2013-01-29 23:18:00,
2013-01-29 17:32:00,34.1,31.0,29.54,South,178,8.0,-999.0,87,-99.99,,,0.00,0,weatherlink.com 1.10,2013-01-29 23:32:00,
2013-01-29 17:48:00,33.8,31.0,29.53,South,173,0.0,-999.0,88,-99.99,,,0.00,0,weatherlink.com 1.10,2013-01-29 23:48:00,
2013-01-29 18:04:00,33.7,31.0,29.55,South,173,6.0,-999.0,88,-99.99,,,0.00,0,weatherlink.com 1.10,2013-01-30 00:04:00,
2013-01-29 18:17:00,33.7,31.0,29.54,SSE,167,4.0,-999.0,88,-99.99,,,0.00,0,weatherlink.com 1.10,2013-01-30 00:17:00,
2013-01-29 18:32:00,33.5,30.0,29.56,South,180,3.0,-999.0,88,-99.99,,,0.00,0,weatherlink.com 1.10,2013-01-30 00:32:00,
2013-01-29 18:47:00,33.5,30.0,29.59,SSW,192,10.0,-999.0,88,-99.99,,,0.00,0,weatherlink.com 1.10,2013-01-30 00:47:00,
2013-01-29 19:02:00,33.7,31.0,29.61,South,171,4.0,-999.0,88,-99.99,,,0.00,0,weatherlink.com 1.10,2013-01-30 01:02:00,
2013-01-29 19:17:00,33.5,30.0,29.56,SSE,165,6.0,-999.0,88,-99.99,,,0.00,0,weatherlink.com 1.10,2013-01-30 01:17:00,
2013-01-29 19:32:00,33.4,31.0,29.55,South,173,7.0,-999.0,89,-99.99,,,0.00,0,weatherlink.com 1.10,2013-01-30 01:32:00,
2013-01-29 19:48:00,33.4,31.0,29.53,SSE,164,4.0,-999.0,89,-99.99,,,0.00,0,weatherlink.com 1.10,2013-01-30 01:48:00,
2013-01-29 20:02:00,33.4,31.0,29.54,South,186,6.0,-999.0,89,-99.99,,,0.00,0,weatherlink.com 1.10,2013-01-30 02:02:00,
2013-01-29 20:17:00,33.5,31.0,29.57,South,169,5.0,-999.0,89,-99.99,,,0.00,0,weatherlink.com 1.10,2013-01-30 02:17:00,
2013-01-29 20:33:00,33.5,30.0,29.57,South,175,6.0,-999.0,88,-99.99,,,0.00,0,weatherlink.com 1.10,2013-01-30 02:33:00,
2013-01-29 20:47:00,33.7,31.0,29.58,South,174,2.0,-999.0,88,-99.99,,,0.00,0,weatherlink.com 1.10,2013-01-30 02:47:00,
2013-01-29 21:03:00,33.5,30.0,29.59,SSE,165,0.0,-999.0,88,-99.99,,,0.00,0,weatherlink.com 1.10,2013-01-30 03:03:00,
2013-01-29 21:18:00,33.4,31.0,29.59,South,184,11.0,-999.0,89,-99.99,,,0.00,0,weatherlink.com 1.10,2013-01-30 03:18:00,
2013-01-29 21:33:00,32.9,30.0,29.59,SSE,166,6.0,-999.0,90,-99.99,,,0.00,0,weatherlink.com 1.10,2013-01-30 03:33:00,
2013-01-29 21:48:00,32.8,31.0,29.57,South,171,8.0,-999.0,91,-99.99,,,0.00,0,weatherlink.com 1.10,2013-01-30 03:48:00,
2013-01-29 22:03:00,32.7,31.0,29.54,SSW,200,7.0,-999.0,92,-99.99,,,0.00,0,weatherlink.com 1.10,2013-01-30 04:03:00,
2013-01-29 22:18:00,32.5,31.0,29.53,South,177,5.0,-999.0,92,-99.99,,,0.00,0,weatherlink.com 1.10,2013-01-30 04:18:00,
2013-01-29 22:33:00,32.5,31.0,29.56,SSE,161,5.0,-999.0,93,-99.99,,,0.00,0,weatherlink.com 1.10,2013-01-30 04:33:00,
2013-01-29 22:48:00,32.5,31.0,29.54,South,171,3.0,-999.0,93,-99.99,,,0.00,0,weatherlink.com 1.10,2013-01-30 04:48:00,
2013-01-29 23:03:00,32.5,31.0,29.54,South,174,5.0,-999.0,93,-99.99,,,0.00,0,weatherlink.com 1.10,2013-01-30 05:03:00,
2013-01-29 23:18:00,32.5,31.0,29.53,South,189,5.0,-999.0,93,-99.99,,,0.00,0,weatherlink.com 1.10,2013-01-30 05:18:00,
2013-01-29 23:33:00,32.5,31.0,29.53,South,180,6.0,-999.0,93,-99.99,,,0.00,0,weatherlink.com 1.10,2013-01-30 05:33:00,
2013-01-29 23:48:00,32.7,31.0,29.54,SSE,157,4.0,-999.0,93,-99.99,,,0.00,0,weatherlink.com 1.10,2013-01-30 05:48:00,